createdAt,value
2023-01-23T00:00:48.724Z,21.00
2023-01-23T00:06:40.029Z,23.90
2023-01-23T00:12:29.357Z,24.60
2023-01-23T00:18:01.774Z,17.50
2023-01-23T00:23:55.952Z,20.00
2023-01-23T00:29:15.492Z,20.20
2023-01-23T00:34:36.391Z,17.00
2023-01-23T00:40:12.817Z,19.50
2023-01-23T00:46:00.727Z,20.80
2023-01-23T00:51:53.787Z,17.80
2023-01-23T00:57:11.238Z,19.60
2023-01-23T01:02:36.312Z,21.90
2023-01-23T01:08:01.901Z,20.00
2023-01-23T01:13:07.539Z,21.00
2023-01-23T01:18:59.857Z,17.60
2023-01-23T01:24:38.254Z,17.80
2023-01-23T01:30:41.046Z,18.60
2023-01-23T01:36:39.254Z,19.30
2023-01-23T01:41:55.531Z,20.30
2023-01-23T01:47:07.991Z,20.10
2023-01-23T01:53:28.490Z,21.10
2023-01-23T02:00:23.704Z,19.70
2023-01-23T02:13:19.023Z,23.70
2023-01-23T02:19:19.872Z,24.40
2023-01-23T02:24:40.356Z,28.10
2023-01-23T02:30:18.566Z,29.30
2023-01-23T02:35:30.391Z,30.50
2023-01-23T02:41:01.791Z,27.70
2023-01-23T02:46:18.652Z,28.10
2023-01-23T02:51:45.168Z,27.40
2023-01-23T02:56:58.282Z,26.60
2023-01-23T03:02:18.946Z,26.90
2023-01-23T03:07:45.618Z,24.80
2023-01-23T03:13:15.159Z,25.60
2023-01-23T03:18:54.698Z,23.90
2023-01-23T03:24:44.897Z,22.20
2023-01-23T03:30:25.277Z,20.40
2023-01-23T03:36:31.980Z,21.20
2023-01-23T03:41:56.341Z,21.80
2023-01-23T03:47:12.110Z,23.00
2023-01-23T03:52:59.243Z,22.90
2023-01-23T03:58:41.054Z,19.00
2023-01-23T04:04:04.067Z,18.00
2023-01-23T04:09:12.374Z,17.00
2023-01-23T04:14:19.486Z,18.10
2023-01-23T04:19:56.761Z,17.60
2023-01-23T04:26:23.980Z,18.70
2023-01-23T04:31:32.758Z,19.60
2023-01-23T04:36:46.744Z,20.00
2023-01-23T04:42:29.440Z,19.80
2023-01-23T04:48:07.876Z,22.00
2023-01-23T04:53:26.208Z,23.20
2023-01-23T04:59:13.241Z,22.60
2023-01-23T05:04:39.549Z,22.90
2023-01-23T05:10:08.593Z,22.60
2023-01-23T05:15:30.834Z,23.20
2023-01-23T05:21:17.410Z,21.80
2023-01-23T05:27:20.020Z,21.80
2023-01-23T05:32:52.493Z,23.50
2023-01-23T05:38:55.121Z,23.70
2023-01-23T05:44:39.250Z,24.40
2023-01-23T05:50:04.616Z,28.60
2023-01-23T05:55:19.170Z,27.70
2023-01-23T06:00:24.991Z,26.00
2023-01-23T06:06:10.050Z,24.40
2023-01-23T06:11:22.238Z,25.80
2023-01-23T06:16:35.093Z,22.80
2023-01-23T06:21:43.191Z,24.60
2023-01-23T06:26:50.617Z,25.20
2023-01-23T06:32:00.074Z,27.00
2023-01-23T06:37:31.680Z,25.20
2023-01-23T06:43:32.147Z,25.10
2023-01-23T06:48:58.557Z,26.90
2023-01-23T06:54:20.577Z,24.00
2023-01-23T07:00:20.527Z,24.10
2023-01-23T07:06:30.551Z,24.40
2023-01-23T07:11:54.748Z,26.00
2023-01-23T07:17:39.997Z,25.00
2023-01-23T07:22:58.893Z,25.20
2023-01-23T07:28:20.968Z,23.10
2023-01-23T07:33:27.963Z,27.50
2023-01-23T07:38:33.591Z,27.00
2023-01-23T07:43:39.597Z,22.60
2023-01-23T07:48:42.156Z,22.10
2023-01-23T07:53:50.062Z,19.60
2023-01-23T07:58:58.842Z,20.70
2023-01-23T08:04:06.461Z,21.50
2023-01-23T08:09:50.923Z,20.80
2023-01-23T08:15:31.707Z,19.60
2023-01-23T08:21:37.656Z,21.50
2023-01-23T08:27:15.529Z,19.80
2023-01-23T08:32:34.780Z,19.70
2023-01-23T08:37:41.440Z,21.20
2023-01-23T08:43:14.908Z,20.40
2023-01-23T08:48:21.984Z,23.70
2023-01-23T08:53:25.527Z,23.60
2023-01-23T08:58:52.396Z,25.10
2023-01-23T09:04:30.820Z,27.20
2023-01-23T09:10:19.246Z,25.80
2023-01-23T09:15:56.942Z,26.90
2023-01-23T09:22:11.758Z,28.40
2023-01-23T09:27:59.612Z,27.00
2023-01-23T09:33:08.336Z,29.00
2023-01-23T09:38:16.266Z,29.30
2023-01-23T09:43:25.605Z,29.00
2023-01-23T09:49:01.770Z,28.40
2023-01-23T09:54:49.965Z,27.60
2023-01-23T10:00:59.147Z,29.10
2023-01-23T10:06:33.535Z,27.90
2023-01-23T10:13:08.617Z,30.90
2023-01-23T10:18:57.763Z,29.20
2023-01-23T10:24:47.282Z,57.30
2023-01-23T10:30:21.376Z,66.30
2023-01-23T10:35:44.431Z,42.90
2023-01-23T10:41:08.822Z,39.60
2023-01-23T10:46:20.655Z,45.80
2023-01-23T10:52:47.125Z,36.80
2023-01-23T10:58:03.874Z,27.10
2023-01-23T11:03:40.770Z,24.70
2023-01-23T11:09:05.498Z,23.50
2023-01-23T11:15:16.727Z,25.70
2023-01-23T11:20:52.235Z,23.90
2023-01-23T11:26:06.788Z,25.80
2023-01-23T11:31:26.658Z,24.30
2023-01-23T11:36:56.185Z,25.40
2023-01-23T11:42:29.729Z,27.00
2023-01-23T11:48:25.090Z,26.40
2023-01-23T11:53:47.131Z,25.70
2023-01-23T11:59:04.003Z,27.30
2023-01-23T12:05:20.795Z,25.80
2023-01-23T12:11:00.461Z,27.60
2023-01-23T12:16:12.829Z,28.60
2023-01-23T12:21:49.096Z,24.80
2023-01-23T12:27:33.738Z,24.30
2023-01-23T12:33:07.527Z,24.30
2023-01-23T12:38:48.839Z,24.60
2023-01-23T12:44:43.094Z,24.00
2023-01-23T12:50:41.956Z,24.60
2023-01-23T12:56:35.864Z,25.60
2023-01-23T13:02:21.176Z,24.60
2023-01-23T13:08:13.115Z,23.70
2023-01-23T13:13:29.809Z,22.50
2023-01-23T13:19:06.753Z,22.70
2023-01-23T13:24:47.944Z,21.50
2023-01-23T13:30:22.548Z,21.60
2023-01-23T13:35:44.248Z,29.10
2023-01-23T13:41:13.539Z,21.80
2023-01-23T14:20:39.473Z,28.20
2023-01-23T14:25:42.091Z,26.70
2023-01-23T14:30:59.299Z,32.30
2023-01-23T14:36:17.992Z,27.60
2023-01-23T14:41:27.998Z,26.30
2023-01-23T14:46:36.369Z,25.80
2023-01-23T14:51:50.267Z,24.40
2023-01-23T14:56:55.914Z,23.70
2023-01-23T15:02:01.866Z,26.20
2023-01-23T15:07:14.429Z,24.90
2023-01-23T15:12:34.481Z,29.60
2023-01-23T15:17:44.739Z,29.90
2023-01-23T15:22:46.859Z,29.80
2023-01-23T15:27:48.791Z,32.30
2023-01-23T15:33:39.935Z,31.00
2023-01-23T15:38:51.166Z,32.50
2023-01-23T15:44:02.804Z,29.70
2023-01-23T15:49:06.911Z,31.00
2023-01-23T15:54:24.762Z,32.90
2023-01-23T15:59:34.680Z,31.70
2023-01-23T16:04:40.688Z,29.30
2023-01-23T16:09:46.680Z,32.70
2023-01-23T16:15:21.179Z,29.90
2023-01-23T16:20:45.609Z,25.70
2023-01-23T16:26:08.301Z,25.20
2023-01-23T16:31:22.664Z,25.60
2023-01-23T16:36:32.828Z,28.30
2023-01-23T16:41:46.584Z,28.00
2023-01-23T16:46:50.307Z,29.90
2023-01-23T16:52:00.788Z,28.20
2023-01-23T16:57:23.370Z,28.20
2023-01-23T17:02:31.248Z,27.20
2023-01-23T17:08:41.384Z,30.90
2023-01-23T17:14:02.047Z,28.90
2023-01-23T17:19:43.346Z,28.40
2023-01-23T17:25:31.982Z,29.20
2023-01-23T17:31:51.842Z,26.70
2023-01-23T17:37:17.291Z,30.10
2023-01-23T17:42:21.794Z,29.20
2023-01-23T17:48:07.194Z,33.00
2023-01-23T17:53:19.263Z,29.50
2023-01-23T17:58:21.331Z,28.60
2023-01-23T18:03:26.933Z,30.60
2023-01-23T18:08:35.200Z,32.40
2023-01-23T18:14:20.925Z,32.80
2023-01-23T18:19:31.294Z,35.20
2023-01-23T18:24:34.346Z,37.60
2023-01-23T18:30:20.395Z,40.80
2023-01-23T18:35:46.771Z,37.70
2023-01-23T18:41:06.371Z,35.70
2023-01-23T18:46:27.021Z,36.30
2023-01-23T18:51:32.194Z,36.60
2023-01-23T18:57:07.693Z,37.00
2023-01-23T19:02:23.243Z,33.80
2023-01-23T19:07:25.349Z,34.00
2023-01-23T19:12:33.713Z,36.10
2023-01-23T19:17:49.585Z,35.10
2023-01-23T19:23:30.574Z,39.50
2023-01-23T19:28:40.137Z,33.00
2023-01-23T19:33:42.061Z,28.70
2023-01-23T19:38:46.690Z,30.50
2023-01-23T19:43:50.791Z,33.00
2023-01-23T19:49:03.934Z,35.50
2023-01-23T19:54:25.096Z,33.70
2023-01-23T19:59:37.611Z,31.10
2023-01-23T20:04:59.572Z,28.90
2023-01-23T20:10:07.702Z,26.80
2023-01-23T20:15:11.793Z,29.80
2023-01-23T20:20:37.407Z,29.40
2023-01-23T20:25:39.595Z,25.50
2023-01-23T20:30:42.530Z,26.60
2023-01-23T20:35:58.369Z,26.10
2023-01-23T20:41:20.899Z,25.60
2023-01-23T20:46:37.545Z,26.90
2023-01-23T20:51:44.634Z,27.30
2023-01-23T20:56:51.105Z,23.70
2023-01-23T21:02:27.519Z,25.20
2023-01-23T21:07:33.023Z,23.30
2023-01-23T21:12:37.969Z,24.20
2023-01-23T21:17:39.441Z,23.80
2023-01-23T21:22:49.318Z,22.80
2023-01-23T21:27:57.481Z,23.00
2023-01-23T21:33:04.186Z,23.20
2023-01-23T21:38:12.000Z,25.30
2023-01-23T21:43:17.203Z,25.80
2023-01-23T21:48:19.604Z,26.50
2023-01-23T21:53:27.597Z,26.80
2023-01-23T21:58:31.857Z,25.40
2023-01-23T22:03:56.862Z,30.80
2023-01-23T22:08:58.934Z,29.60
2023-01-23T22:15:07.159Z,27.70
2023-01-23T22:21:23.999Z,32.10
2023-01-23T22:26:40.594Z,29.20
2023-01-23T22:31:55.849Z,34.70
2023-01-23T22:37:03.463Z,34.10
2023-01-23T22:42:13.293Z,32.20
2023-01-23T22:47:15.439Z,32.80
2023-01-23T22:52:45.379Z,33.60
2023-01-23T22:57:52.383Z,29.40
2023-01-23T23:03:03.474Z,32.30
2023-01-23T23:08:13.779Z,29.30
2023-01-23T23:13:18.757Z,31.40
2023-01-23T23:18:23.686Z,29.80
2023-01-23T23:23:29.028Z,28.30
2023-01-23T23:28:51.732Z,30.40
2023-01-23T23:34:57.115Z,30.00
2023-01-23T23:40:02.517Z,33.90
2023-01-23T23:45:06.029Z,32.80
2023-01-23T23:50:22.044Z,30.60
2023-01-23T23:55:30.612Z,30.40
